Time;durP1;ratioP1;P1;durP2;ratioP2;P2;SDS_P1;SDS_P2;PMS_P1;PMS_P2;Temp;Humidity;BMP_temperature;BMP_pressure;BME280_temperature;BME280_humidity;BME280_pressure;Samples;Min_cycle;Max_cycle;Signal;HPM_P1;HPM_P2
2022/09/19 00:00:40;;;;;;;3.07;1.20;;;10.20;60.70;;;;;;5052774;28;46624;-65
2022/09/19 00:03:06;;;;;;;3.40;1.53;;;10.20;60.80;;;;;;5049687;28;46598;-64
2022/09/19 00:05:32;;;;;;;7.47;1.80;;;10.20;61.20;;;;;;5045022;28;47110;-66
2022/09/19 00:07:58;;;;;;;2.10;1.10;;;10.20;61.30;;;;;;5051045;28;46287;-65
2022/09/19 00:10:25;;;;;;;4.13;1.40;;;10.20;61.50;;;;;;5051957;28;46266;-64
2022/09/19 00:12:52;;;;;;;4.97;1.10;;;10.10;61.80;;;;;;5056485;28;46261;-64
2022/09/19 00:15:17;;;;;;;4.57;1.30;;;10.10;61.90;;;;;;5048398;28;46955;-65
2022/09/19 00:17:43;;;;;;;4.60;1.67;;;10.20;61.70;;;;;;5045855;28;46424;-66
2022/09/19 00:20:09;;;;;;;5.47;1.50;;;10.20;61.60;;;;;;5060187;28;46450;-65
2022/09/19 00:22:35;;;;;;;5.10;1.60;;;10.20;61.70;;;;;;5049792;28;46497;-65
2022/09/19 00:25:00;;;;;;;2.03;1.20;;;10.30;61.80;;;;;;5050604;28;46638;-65
2022/09/19 00:27:28;;;;;;;3.47;1.40;;;10.20;63.10;;;;;;5054110;28;46396;-65
2022/09/19 00:29:54;;;;;;;4.70;1.50;;;10.20;62.40;;;;;;5046239;28;46426;-65
2022/09/19 00:32:22;;;;;;;4.17;1.40;;;10.10;62.40;;;;;;5047533;28;46349;-65
2022/09/19 00:34:49;;;;;;;3.30;1.50;;;10.10;62.70;;;;;;5054262;28;47520;-65
2022/09/19 00:37:18;;;;;;;2.73;1.30;;;10.10;63.00;;;;;;5049025;28;46380;-66
2022/09/19 00:39:44;;;;;;;7.43;1.70;;;10.10;62.70;;;;;;5046152;28;46283;-65
2022/09/19 00:42:22;;;;;;;3.30;1.10;;;10.20;62.70;;;;;;5052659;28;46396;-66
2022/09/19 00:45:01;;;;;;;13.10;1.33;;;10.10;63.00;;;;;;5059952;28;47018;-66
2022/09/19 00:47:40;;;;;;;2.40;1.20;;;10.10;63.20;;;;;;5045557;28;46438;-66
2022/09/19 00:50:11;;;;;;;3.20;1.40;;;10.00;63.60;;;;;;5049725;28;46443;-66
2022/09/19 00:52:50;;;;;;;2.97;1.20;;;10.00;65.60;;;;;;5054419;28;46395;-65
2022/09/19 00:55:17;;;;;;;2.60;1.23;;;9.90;65.20;;;;;;5049016;28;46389;-65
2022/09/19 00:57:57;;;;;;;4.07;1.50;;;9.90;65.30;;;;;;5050310;28;46332;-64
2022/09/19 01:00:22;;;;;;;5.83;1.50;;;9.90;65.30;;;;;;5048119;28;46351;-65
2022/09/19 01:02:49;;;;;;;2.83;1.30;;;9.90;66.10;;;;;;5058300;28;46546;-65
2022/09/19 01:05:16;;;;;;;4.00;1.30;;;9.80;66.40;;;;;;5049044;28;46412;-65
2022/09/19 01:08:28;;;;;;;4.57;1.80;;;9.90;66.30;;;;;;5049984;28;46360;-65
2022/09/19 01:11:03;;;;;;;9.57;1.50;;;9.90;66.20;;;;;;5040342;28;46464;-65
2022/09/19 01:13:54;;;;;;;2.57;1.37;;;9.90;65.70;;;;;;5045641;28;46458;-65
2022/09/19 01:17:05;;;;;;;3.50;1.50;;;9.90;65.80;;;;;;5052667;28;47322;-64
2022/09/19 01:20:06;;;;;;;2.70;1.50;;;9.80;66.20;;;;;;5053066;28;46366;-65
2022/09/19 01:23:10;;;;;;;2.90;1.13;;;9.80;66.80;;;;;;5030504;28;46474;-65
2022/09/19 01:25:51;;;;;;;2.97;1.10;;;9.70;67.10;;;;;;5052770;28;46421;-65
2022/09/19 01:28:49;;;;;;;2.83;0.90;;;9.50;67.80;;;;;;5048230;28;46520;-65
2022/09/19 01:31:21;;;;;;;1.93;1.00;;;9.20;68.40;;;;;;5041395;28;46088;-65
2022/09/19 01:34:12;;;;;;;3.00;1.00;;;9.00;68.10;;;;;;5051286;28;46380;-66
2022/09/19 01:36:52;;;;;;;1.40;0.70;;;9.00;67.60;;;;;;5046572;28;46454;-66
2022/09/19 01:39:23;;;;;;;1.60;0.77;;;9.00;67.20;;;;;;5050314;28;46653;-66
2022/09/19 01:41:54;;;;;;;2.10;0.80;;;9.00;66.90;;;;;;5048902;28;46392;-66
2022/09/19 01:44:23;;;;;;;1.50;0.80;;;9.00;66.70;;;;;;5048187;28;46346;-63
2022/09/19 01:46:57;;;;;;;1.60;0.90;;;9.00;66.60;;;;;;5044966;28;46477;-64
2022/09/19 01:49:36;;;;;;;1.33;0.80;;;9.00;66.50;;;;;;5050308;28;46356;-66
2022/09/19 01:52:23;;;;;;;1.97;0.90;;;9.00;66.80;;;;;;5046815;28;45937;-64
2022/09/19 01:55:09;;;;;;;2.10;1.03;;;9.00;66.70;;;;;;5049943;28;45875;-65
2022/09/19 01:58:00;;;;;;;2.10;1.10;;;8.90;66.90;;;;;;5058940;28;46515;-65
2022/09/19 02:00:27;;;;;;;2.37;0.93;;;8.80;67.30;;;;;;5049833;28;46654;-65
2022/09/19 02:03:01;;;;;;;2.30;1.00;;;8.80;67.90;;;;;;5049477;28;45709;-65
2022/09/19 02:05:51;;;;;;;2.13;1.00;;;8.80;67.90;;;;;;5058054;28;46265;-65
2022/09/19 02:08:31;;;;;;;2.23;0.90;;;8.90;67.70;;;;;;5054359;28;46359;-64
2022/09/19 02:11:03;;;;;;;3.53;0.80;;;8.80;67.60;;;;;;5051598;28;46483;-64
2022/09/19 02:13:33;;;;;;;3.63;0.80;;;8.80;67.60;;;;;;5058465;28;46290;-65
2022/09/19 02:16:25;;;;;;;1.57;0.83;;;8.70;67.90;;;;;;5052876;28;46309;-65
2022/09/19 02:18:58;;;;;;;1.77;0.83;;;8.50;68.20;;;;;;5052920;28;46408;-65
2022/09/19 02:21:36;;;;;;;1.83;0.83;;;8.40;68.80;;;;;;5062803;28;46117;-65
2022/09/19 02:24:06;;;;;;;1.40;0.70;;;8.30;68.80;;;;;;5049591;28;46287;-65
2022/09/19 02:26:33;;;;;;;2.60;0.90;;;8.20;69.20;;;;;;5057179;28;46404;-64
2022/09/19 02:29:01;;;;;;;1.30;0.70;;;8.10;69.40;;;;;;5047889;28;46574;-64
2022/09/19 02:31:27;;;;;;;2.60;0.70;;;8.00;71.10;;;;;;5059982;28;46405;-65
2022/09/19 02:33:55;;;;;;;2.20;0.80;;;7.90;70.30;;;;;;5052144;28;46461;-65
2022/09/19 02:36:32;;;;;;;1.50;0.90;;;7.80;70.40;;;;;;5048285;28;46279;-64
2022/09/19 02:39:03;;;;;;;12.73;1.30;;;7.70;70.50;;;;;;5049312;28;46264;-65
2022/09/19 02:41:51;;;;;;;1.70;0.80;;;7.70;70.60;;;;;;5051076;28;47261;-65
2022/09/19 02:44:28;;;;;;;1.67;0.70;;;7.70;70.50;;;;;;5049279;28;46423;-65
2022/09/19 02:47:06;;;;;;;1.50;0.87;;;7.60;70.50;;;;;;5051001;28;45960;-64
2022/09/19 02:49:52;;;;;;;1.67;0.80;;;7.60;70.70;;;;;;5063464;28;46487;-64
2022/09/19 02:52:27;;;;;;;2.13;0.90;;;7.50;71.10;;;;;;5046671;28;46273;-63
2022/09/19 02:54:57;;;;;;;1.47;0.83;;;7.40;71.00;;;;;;5050575;28;46444;-65
2022/09/19 02:57:25;;;;;;;2.63;1.00;;;7.40;71.10;;;;;;5051602;28;46540;-65
2022/09/19 02:59:58;;;;;;;2.23;0.70;;;7.40;71.40;;;;;;5052481;28;45820;-65
2022/09/19 03:02:27;;;;;;;2.33;0.80;;;7.30;71.60;;;;;;5054123;28;46335;-64
2022/09/19 03:05:19;;;;;;;1.70;0.90;;;7.30;71.80;;;;;;5051789;28;46490;-64
2022/09/19 03:08:00;;;;;;;3.73;0.80;;;7.20;71.90;;;;;;5049115;28;46341;-65
2022/09/19 03:10:34;;;;;;;2.33;0.97;;;7.20;72.00;;;;;;5051865;28;46650;-65
2022/09/19 03:13:10;;;;;;;1.30;0.80;;;7.20;72.20;;;;;;5050651;28;47229;-65
2022/09/19 03:15:49;;;;;;;3.30;0.73;;;7.20;72.50;;;;;;5057588;28;46539;-64
2022/09/19 03:18:18;;;;;;;1.80;0.80;;;7.10;72.50;;;;;;5057263;28;46431;-65
2022/09/19 03:21:06;;;;;;;2.33;1.00;;;7.10;72.50;;;;;;5058178;27;45968;-65
2022/09/19 03:23:37;;;;;;;5.60;0.73;;;7.10;72.60;;;;;;5066533;28;47186;-66
2022/09/19 03:26:05;;;;;;;2.70;0.87;;;7.10;72.70;;;;;;5058073;28;45747;-66
2022/09/19 03:28:30;;;;;;;2.20;0.70;;;7.10;72.90;;;;;;5055954;28;45869;-64
2022/09/19 03:30:59;;;;;;;2.50;0.80;;;7.00;72.80;;;;;;5062453;28;46384;-64
2022/09/19 03:33:25;;;;;;;3.67;0.80;;;7.10;72.90;;;;;;5053496;28;47004;-64
2022/09/19 03:35:51;;;;;;;1.80;0.80;;;7.10;72.90;;;;;;5058413;27;46601;-65
2022/09/19 03:38:17;;;;;;;3.10;1.10;;;7.00;72.90;;;;;;5059308;28;46274;-65
2022/09/19 03:40:42;;;;;;;4.70;0.90;;;7.00;73.10;;;;;;5063083;27;46342;-65
2022/09/19 03:43:08;;;;;;;2.33;0.83;;;7.00;73.20;;;;;;5059909;28;46436;-64
2022/09/19 03:45:33;;;;;;;3.20;1.00;;;6.90;73.20;;;;;;5062008;28;46486;-64
2022/09/19 03:47:59;;;;;;;2.17;0.80;;;6.90;73.40;;;;;;5060298;28;46408;-65
2022/09/19 03:50:25;;;;;;;6.00;1.00;;;6.90;73.50;;;;;;5061411;28;46492;-65
2022/09/19 03:52:50;;;;;;;3.03;0.80;;;6.90;73.60;;;;;;5055256;28;46443;-63
2022/09/19 03:55:17;;;;;;;2.90;0.97;;;6.90;73.80;;;;;;5058228;28;46317;-65
2022/09/19 03:57:42;;;;;;;5.80;1.10;;;6.90;73.70;;;;;;5051864;28;46435;-64
2022/09/19 04:00:09;;;;;;;3.20;0.80;;;6.90;73.70;;;;;;5054454;28;46204;-65
2022/09/19 04:02:35;;;;;;;3.27;0.93;;;6.90;73.60;;;;;;5060309;28;47191;-65
2022/09/19 04:05:02;;;;;;;2.60;0.90;;;6.80;73.60;;;;;;5068777;27;46343;-65
2022/09/19 04:07:28;;;;;;;2.63;1.00;;;6.80;73.50;;;;;;5052942;28;46543;-65
2022/09/19 04:09:54;;;;;;;4.30;0.93;;;6.80;73.60;;;;;;5062009;28;46658;-65
2022/09/19 04:12:21;;;;;;;1.50;0.80;;;6.80;73.70;;;;;;5064009;28;47050;-64
2022/09/19 04:14:48;;;;;;;3.70;0.80;;;6.70;73.70;;;;;;5063742;27;45977;-65
2022/09/19 04:17:13;;;;;;;6.13;0.90;;;6.70;73.60;;;;;;5060314;28;46192;-66
2022/09/19 04:19:42;;;;;;;4.60;1.00;;;6.70;73.50;;;;;;5064163;28;46393;-63
2022/09/19 04:22:11;;;;;;;4.50;2.50;;;6.70;73.50;;;;;;5061699;28;47263;-65
2022/09/19 04:24:43;;;;;;;3.20;1.13;;;6.60;73.20;;;;;;5051352;28;46435;-65
2022/09/19 04:27:12;;;;;;;2.60;0.90;;;6.70;73.20;;;;;;5063734;28;45761;-64
2022/09/19 04:29:38;;;;;;;6.23;1.07;;;6.70;72.90;;;;;;5055552;28;46413;-65
2022/09/19 04:32:04;;;;;;;7.93;0.87;;;6.70;72.90;;;;;;5050631;28;46459;-64
2022/09/19 04:34:30;;;;;;;3.10;0.80;;;6.70;72.90;;;;;;5064932;28;46484;-65
2022/09/19 04:36:57;;;;;;;2.60;0.93;;;6.70;72.50;;;;;;5060560;27;46337;-64
2022/09/19 04:39:24;;;;;;;17.07;1.10;;;6.80;72.10;;;;;;5056834;28;46346;-64
2022/09/19 04:41:52;;;;;;;7.87;0.90;;;6.90;71.90;;;;;;5057141;28;47861;-64
2022/09/19 04:44:18;;;;;;;3.47;0.97;;;6.90;71.70;;;;;;5065948;28;46350;-65
2022/09/19 04:46:44;;;;;;;3.03;1.00;;;7.00;71.50;;;;;;5066142;28;46402;-65
2022/09/19 04:49:11;;;;;;;9.43;1.20;;;7.10;71.30;;;;;;5057750;27;46370;-65
2022/09/19 04:51:37;;;;;;;4.10;0.97;;;7.20;71.10;;;;;;5061847;28;48284;-65
2022/09/19 04:54:05;;;;;;;1.73;1.00;;;7.20;70.70;;;;;;5063118;27;46397;-63
2022/09/19 04:56:30;;;;;;;7.57;1.20;;;7.20;70.50;;;;;;5057718;28;46380;-64
2022/09/19 04:59:02;;;;;;;6.70;1.30;;;7.30;70.40;;;;;;5052505;28;46421;-63
2022/09/19 05:01:31;;;;;;;4.77;1.10;;;7.40;70.10;;;;;;5070960;28;46399;-65
2022/09/19 05:03:57;;;;;;;10.13;1.63;;;7.50;69.70;;;;;;5061743;28;46387;-65
2022/09/19 05:06:23;;;;;;;6.00;1.37;;;7.60;69.40;;;;;;5056758;28;46362;-65
2022/09/19 05:08:50;;;;;;;1.60;0.90;;;7.60;69.40;;;;;;5045038;28;46459;-66
2022/09/19 05:11:21;;;;;;;5.50;1.10;;;7.70;69.20;;;;;;5046915;28;47080;-65
2022/09/19 05:13:49;;;;;;;5.37;1.00;;;7.70;68.80;;;;;;5054927;28;46430;-65
2022/09/19 05:16:15;;;;;;;5.17;1.03;;;7.80;68.80;;;;;;5045917;28;46264;-65
2022/09/19 05:18:41;;;;;;;7.10;1.43;;;7.80;68.90;;;;;;5047450;28;46415;-65
2022/09/19 05:21:11;;;;;;;5.20;1.70;;;7.80;68.80;;;;;;5052822;28;46372;-65
2022/09/19 05:23:38;;;;;;;4.87;1.53;;;7.80;68.30;;;;;;5055780;28;46418;-65
2022/09/19 05:26:05;;;;;;;8.47;1.40;;;7.90;68.10;;;;;;5057081;28;46399;-65
2022/09/19 05:28:31;;;;;;;2.10;1.10;;;8.00;67.90;;;;;;5053591;28;46486;-65
2022/09/19 05:30:57;;;;;;;4.63;1.30;;;8.00;67.80;;;;;;5047809;28;47198;-65
2022/09/19 05:33:26;;;;;;;3.00;0.93;;;8.10;67.60;;;;;;5051885;28;46369;-64
2022/09/19 05:36:02;;;;;;;9.40;1.37;;;8.10;67.30;;;;;;5052645;28;46390;-65
2022/09/19 05:38:29;;;;;;;5.93;1.20;;;8.20;67.30;;;;;;5049225;28;46373;-65
2022/09/19 05:40:56;;;;;;;6.23;1.40;;;8.20;67.00;;;;;;5054502;28;48041;-65
2022/09/19 05:43:22;;;;;;;8.20;2.20;;;8.30;67.10;;;;;;5056219;28;46406;-66
2022/09/19 05:45:50;;;;;;;4.20;0.97;;;8.40;66.70;;;;;;5058545;28;46194;-65
2022/09/19 05:48:16;;;;;;;7.53;1.20;;;8.40;66.40;;;;;;5052420;28;46482;-65
2022/09/19 05:50:46;;;;;;;4.27;1.03;;;8.60;66.20;;;;;;5056796;28;46359;-66
2022/09/19 05:55:58;;;;;;;8.10;1.53;;;8.70;65.60;;;;;;5051754;28;45625;-66
2022/09/19 05:58:25;;;;;;;4.37;1.20;;;8.80;65.80;;;;;;5054833;28;46342;-66
2022/09/19 06:00:51;;;;;;;10.70;1.33;;;8.80;66.00;;;;;;5063250;28;48226;-65
2022/09/19 06:03:20;;;;;;;4.90;1.23;;;8.90;65.80;;;;;;5051024;28;46387;-65
2022/09/19 06:05:48;;;;;;;2.37;0.90;;;9.10;65.30;;;;;;5059009;28;46448;-64
2022/09/19 06:08:16;;;;;;;16.43;2.57;;;9.10;64.60;;;;;;5054500;28;46371;-64
2022/09/19 06:10:43;;;;;;;2.83;1.00;;;9.10;64.60;;;;;;5058636;28;48219;-65
2022/09/19 06:13:17;;;;;;;5.10;1.03;;;9.10;64.60;;;;;;5052459;28;45807;-65
2022/09/19 06:15:43;;;;;;;6.20;1.60;;;9.20;64.70;;;;;;5052161;28;46565;-65
2022/09/19 06:18:11;;;;;;;11.33;1.50;;;9.30;64.50;;;;;;5057790;28;46433;-65
2022/09/19 06:20:38;;;;;;;5.30;1.13;;;9.20;64.30;;;;;;5051020;28;47183;-65
2022/09/19 06:23:06;;;;;;;4.37;1.10;;;9.20;64.70;;;;;;5053671;28;46459;-64
2022/09/19 06:25:33;;;;;;;12.47;1.80;;;9.20;64.30;;;;;;5061259;28;46306;-65
2022/09/19 06:28:00;;;;;;;6.40;1.37;;;9.40;63.70;;;;;;5057137;28;46752;-65
2022/09/19 06:30:28;;;;;;;3.13;1.20;;;9.50;63.50;;;;;;5046413;28;46489;-64
2022/09/19 06:32:54;;;;;;;5.03;1.40;;;9.50;63.10;;;;;;5043321;28;46471;-65
2022/09/19 06:35:34;;;;;;;7.00;1.40;;;9.50;63.20;;;;;;5051121;28;46397;-65
2022/09/19 06:38:01;;;;;;;7.13;2.17;;;9.60;63.00;;;;;;5050021;28;46452;-65
2022/09/19 06:40:29;;;;;;;7.80;1.57;;;9.70;62.50;;;;;;5047148;28;46374;-65
2022/09/19 06:43:02;;;;;;;7.00;1.50;;;9.80;62.30;;;;;;5051293;28;46437;-65
2022/09/19 06:45:29;;;;;;;3.70;1.20;;;9.90;61.70;;;;;;5050454;28;46381;-65
2022/09/19 06:47:57;;;;;;;7.80;1.30;;;10.10;60.50;;;;;;5051484;28;46516;-65
2022/09/19 06:50:23;;;;;;;13.50;1.40;;;10.10;60.40;;;;;;5048331;28;47488;-65
2022/09/19 06:52:48;;;;;;;7.93;1.90;;;10.10;60.10;;;;;;5049084;28;46429;-65
2022/09/19 06:55:14;;;;;;;8.10;1.20;;;10.20;60.00;;;;;;5048506;28;46351;-65
2022/09/19 06:57:39;;;;;;;10.00;1.50;;;10.20;60.00;;;;;;5051954;28;46680;-64
2022/09/19 07:00:06;;;;;;;7.37;1.43;;;10.30;60.00;;;;;;5047881;28;46420;-65
2022/09/19 07:02:31;;;;;;;5.80;1.40;;;10.40;59.50;;;;;;5050981;28;46410;-65
2022/09/19 07:04:57;;;;;;;8.37;1.57;;;10.40;59.40;;;;;;5048216;28;46393;-65
2022/09/19 07:07:23;;;;;;;5.80;1.80;;;10.40;59.40;;;;;;5050939;28;46487;-65
2022/09/19 07:09:48;;;;;;;4.90;1.20;;;10.50;59.40;;;;;;5049958;28;46132;-65
2022/09/19 07:12:14;;;;;;;8.00;1.80;;;10.50;60.30;;;;;;5058590;28;45851;-65
2022/09/19 07:14:41;;;;;;;6.80;1.27;;;10.50;59.00;;;;;;5034989;28;46377;-64
2022/09/19 07:17:07;;;;;;;6.57;1.07;;;10.60;59.00;;;;;;5056670;28;46472;-64
2022/09/19 07:19:32;;;;;;;7.37;1.70;;;10.70;58.90;;;;;;5051239;28;47094;-65
2022/09/19 07:21:58;;;;;;;5.97;1.27;;;10.70;58.70;;;;;;5057073;28;46302;-65
2022/09/19 07:24:24;;;;;;;11.60;1.60;;;10.70;58.70;;;;;;5050857;28;46653;-65
2022/09/19 07:26:49;;;;;;;5.23;1.20;;;10.70;58.50;;;;;;5046505;28;46410;-64
2022/09/19 07:29:15;;;;;;;14.17;2.17;;;10.60;58.30;;;;;;5058451;28;46230;-65
2022/09/19 07:31:41;;;;;;;8.23;1.33;;;10.50;58.40;;;;;;5056292;28;46258;-64
2022/09/19 07:34:06;;;;;;;8.40;1.40;;;10.60;58.30;;;;;;5050124;28;46498;-65
2022/09/19 07:36:32;;;;;;;7.87;1.43;;;10.70;58.20;;;;;;5048255;28;46228;-65
2022/09/19 07:38:58;;;;;;;12.20;1.90;;;10.70;57.70;;;;;;5052971;28;46426;-65
2022/09/19 07:41:24;;;;;;;6.70;1.73;;;10.80;57.40;;;;;;5049606;28;46405;-66
2022/09/19 07:43:49;;;;;;;8.27;1.23;;;10.90;57.10;;;;;;5054839;28;46386;-66
2022/09/19 07:46:17;;;;;;;6.57;1.60;;;10.90;57.00;;;;;;5051009;28;46604;-65
2022/09/19 07:48:47;;;;;;;17.23;2.90;;;11.00;56.80;;;;;;5050670;28;47403;-65
2022/09/19 07:51:13;;;;;;;4.57;2.10;;;11.10;56.40;;;;;;5047435;28;46421;-65
2022/09/19 07:53:39;;;;;;;7.10;1.50;;;11.20;55.80;;;;;;5054376;28;46637;-65
2022/09/19 07:56:05;;;;;;;6.60;1.73;;;11.30;55.60;;;;;;5046488;28;46422;-64
2022/09/19 07:58:31;;;;;;;9.10;1.90;;;11.40;55.50;;;;;;5052142;28;47138;-65
2022/09/19 08:01:00;;;;;;;10.17;2.17;;;11.50;55.20;;;;;;5047130;28;46390;-65
2022/09/19 08:03:26;;;;;;;6.40;1.40;;;11.50;55.10;;;;;;5059620;28;45750;-65
2022/09/19 08:05:52;;;;;;;4.47;1.30;;;11.40;55.00;;;;;;5052958;28;46516;-65
2022/09/19 08:08:20;;;;;;;7.10;2.33;;;11.20;55.00;;;;;;5060374;28;47229;-65
2022/09/19 08:10:45;;;;;;;7.10;1.43;;;11.20;55.20;;;;;;5051025;28;46411;-65
2022/09/19 08:13:13;;;;;;;5.70;1.33;;;11.30;55.20;;;;;;5050077;28;46321;-64
2022/09/19 08:15:39;;;;;;;14.40;1.53;;;11.20;55.00;;;;;;5058775;27;46336;-65
2022/09/19 08:18:19;;;;;;;8.13;1.57;;;11.20;54.90;;;;;;5043596;28;46441;-65
2022/09/19 08:20:45;;;;;;;4.33;1.37;;;11.30;54.60;;;;;;5048131;28;46432;-65
2022/09/19 08:23:13;;;;;;;6.13;1.27;;;11.30;54.60;;;;;;5049343;28;45956;-65
2022/09/19 08:25:46;;;;;;;5.87;1.70;;;11.20;55.70;;;;;;5049608;28;46363;-65
2022/09/19 08:28:12;;;;;;;4.23;1.40;;;11.10;55.00;;;;;;5050565;28;46402;-65
2022/09/19 08:30:38;;;;;;;4.50;1.37;;;11.00;55.00;;;;;;5048657;28;46371;-65
2022/09/19 08:33:06;;;;;;;7.20;1.83;;;11.00;55.00;;;;;;5049428;28;46573;-66
2022/09/19 08:35:37;;;;;;;4.70;1.40;;;11.00;54.90;;;;;;5055731;28;46399;-66
2022/09/19 08:38:04;;;;;;;9.97;1.50;;;11.00;55.00;;;;;;5050199;28;46336;-65
2022/09/19 08:40:39;;;;;;;8.80;1.50;;;11.20;54.90;;;;;;5047074;28;46408;-65
2022/09/19 08:43:32;;;;;;;4.90;1.37;;;11.30;54.30;;;;;;5049107;28;46468;-65
2022/09/19 08:46:10;;;;;;;9.53;1.50;;;11.30;54.20;;;;;;5051261;28;46280;-65
2022/09/19 08:48:55;;;;;;;8.30;1.90;;;11.40;54.00;;;;;;5048005;28;47760;-65
2022/09/19 08:51:21;;;;;;;5.63;1.47;;;11.40;53.40;;;;;;5049555;28;46597;-65
2022/09/19 08:53:51;;;;;;;7.13;1.50;;;11.40;53.30;;;;;;5052448;28;46350;-65
2022/09/19 08:56:19;;;;;;;16.83;1.40;;;11.40;53.30;;;;;;5056162;28;46404;-65
2022/09/19 08:58:50;;;;;;;7.80;2.00;;;11.50;53.30;;;;;;5048388;27;46381;-65
2022/09/19 09:01:17;;;;;;;10.40;2.00;;;11.50;53.00;;;;;;5054213;28;46380;-65
2022/09/19 09:03:57;;;;;;;8.17;1.50;;;11.70;53.20;;;;;;5059017;27;46501;-65
2022/09/19 09:06:40;;;;;;;4.27;1.77;;;11.70;53.20;;;;;;5054432;28;46606;-65
2022/09/19 09:09:12;;;;;;;9.13;2.00;;;11.50;53.00;;;;;;5052848;28;46714;-65
2022/09/19 09:12:06;;;;;;;9.27;2.67;;;11.60;53.20;;;;;;5056717;28;46359;-62
2022/09/19 09:15:03;;;;;;;9.20;1.13;;;11.60;53.10;;;;;;5037083;28;46490;-63
2022/09/19 09:17:57;;;;;;;5.90;1.40;;;11.70;52.60;;;;;;5053817;28;46271;-65
2022/09/19 09:20:43;;;;;;;6.97;1.90;;;11.80;52.10;;;;;;5061775;28;47112;-63
2022/09/19 09:23:14;;;;;;;19.00;2.23;;;12.00;52.00;;;;;;5051241;28;46348;-63
2022/09/19 09:25:54;;;;;;;4.43;1.40;;;12.20;51.20;;;;;;5053568;28;46349;-63
2022/09/19 09:28:51;;;;;;;6.10;1.50;;;12.40;51.00;;;;;;5063605;28;46411;-63
2022/09/19 09:31:35;;;;;;;6.60;1.50;;;12.60;50.40;;;;;;5051032;28;46444;-63
2022/09/19 09:34:08;;;;;;;7.00;1.40;;;12.80;49.40;;;;;;5062588;28;46259;-64
2022/09/19 09:36:51;;;;;;;5.67;1.53;;;12.80;48.60;;;;;;5074444;28;46235;-63
2022/09/19 09:39:30;;;;;;;8.80;1.80;;;12.70;48.50;;;;;;5050652;28;46443;-63
2022/09/19 09:42:01;;;;;;;9.77;1.80;;;12.90;48.60;;;;;;5061372;28;46720;-63
2022/09/19 09:44:59;;;;;;;12.23;2.00;;;12.90;47.80;;;;;;5061502;28;46804;-63
2022/09/19 09:47:46;;;;;;;7.37;1.40;;;12.70;46.80;;;;;;5056453;28;47935;-63
2022/09/19 09:50:44;;;;;;;7.00;1.40;;;12.90;47.30;;;;;;5064836;28;45766;-63
2022/09/19 09:53:31;;;;;;;10.43;1.40;;;13.10;47.10;;;;;;5064964;28;46744;-63
2022/09/19 09:56:23;;;;;;;12.27;1.40;;;13.00;46.60;;;;;;5066558;28;46406;-63
2022/09/19 09:58:57;;;;;;;7.80;1.90;;;12.90;46.10;;;;;;5063895;28;46514;-62
2022/09/19 10:05:01;;;;;;;5.33;1.40;;;13.00;46.60;;;;;;5066654;28;46373;-63
2022/09/19 10:07:39;;;;;;;5.83;1.63;;;13.50;45.80;;;;;;5053939;28;46366;-63
2022/09/19 10:10:14;;;;;;;8.53;1.73;;;13.70;45.40;;;;;;5061552;28;46378;-63
2022/09/19 10:13:09;;;;;;;7.07;1.77;;;13.70;44.30;;;;;;5055421;28;46417;-63
2022/09/19 10:15:41;;;;;;;11.43;1.63;;;13.60;43.50;;;;;;5055901;28;46331;-63
2022/09/19 10:18:14;;;;;;;6.20;1.37;;;13.50;44.00;;;;;;5055512;28;46454;-65
2022/09/19 10:20:52;;;;;;;4.40;1.10;;;13.40;43.90;;;;;;5065346;28;46329;-63
2022/09/19 10:23:26;;;;;;;5.63;1.33;;;13.40;44.40;;;;;;5060840;28;46442;-63
2022/09/19 10:26:14;;;;;;;3.13;1.43;;;13.70;44.20;;;;;;5049259;28;46508;-63
2022/09/19 10:29:04;;;;;;;5.03;1.23;;;13.80;44.30;;;;;;5052652;28;46454;-64
2022/09/19 10:31:38;;;;;;;8.60;1.60;;;13.70;44.50;;;;;;5049221;28;46441;-63
2022/09/19 10:34:23;;;;;;;4.30;1.17;;;13.80;44.20;;;;;;5052077;28;46344;-67
2022/09/19 10:36:52;;;;;;;5.27;1.30;;;13.80;43.50;;;;;;5054681;28;47303;-65
2022/09/19 10:39:24;;;;;;;3.53;1.37;;;13.60;43.60;;;;;;5050966;28;46407;-64
2022/09/19 10:41:53;;;;;;;8.60;1.43;;;13.70;43.30;;;;;;5051225;28;46728;-65
2022/09/19 10:44:28;;;;;;;4.10;1.17;;;13.60;43.30;;;;;;5050646;28;46526;-64
2022/09/19 10:47:13;;;;;;;6.57;1.50;;;13.90;44.00;;;;;;5046761;28;48286;-64
2022/09/19 10:49:49;;;;;;;4.00;1.23;;;14.00;42.70;;;;;;5055900;28;46484;-64
2022/09/19 10:52:33;;;;;;;9.23;1.30;;;14.10;42.20;;;;;;5060932;28;46342;-63
2022/09/19 10:55:02;;;;;;;3.37;1.40;;;14.30;42.30;;;;;;5058560;28;46846;-64
2022/09/19 10:57:45;;;;;;;5.27;1.30;;;14.20;42.20;;;;;;5069382;28;46595;-63
2022/09/19 11:00:47;;;;;;;3.13;1.00;;;14.20;42.30;;;;;;5067206;28;46575;-63
2022/09/19 11:03:29;;;;;;;11.80;2.60;;;14.20;42.20;;;;;;5066944;28;46714;-64
2022/09/19 11:06:18;;;;;;;4.37;1.17;;;14.50;41.80;;;;;;5061021;28;46402;-65
2022/09/19 11:08:51;;;;;;;3.77;1.17;;;14.70;40.80;;;;;;5053440;28;47312;-64
2022/09/19 11:11:40;;;;;;;4.57;1.20;;;14.80;40.80;;;;;;5055281;27;46430;-64
2022/09/19 11:14:18;;;;;;;6.17;1.20;;;14.80;40.80;;;;;;5057347;28;46445;-63
2022/09/19 11:17:06;;;;;;;6.33;1.47;;;14.90;40.90;;;;;;5061809;28;46388;-63
2022/09/19 11:19:38;;;;;;;9.70;1.40;;;15.00;38.50;;;;;;5047613;28;46738;-63
2022/09/19 11:22:44;;;;;;;4.07;1.60;;;15.10;38.30;;;;;;5059612;28;46908;-63
2022/09/19 11:25:35;;;;;;;5.10;1.33;;;15.40;37.70;;;;;;5060676;28;46568;-63
2022/09/19 11:28:20;;;;;;;4.20;1.20;;;15.80;36.60;;;;;;5058836;28;46323;-63
2022/09/19 11:31:05;;;;;;;3.60;1.20;;;16.00;35.60;;;;;;5041797;28;46695;-64
2022/09/19 11:33:43;;;;;;;4.27;1.10;;;16.00;35.40;;;;;;5047789;28;46312;-64
2022/09/19 11:36:28;;;;;;;4.70;1.27;;;15.80;35.00;;;;;;5048582;28;46414;-63
2022/09/19 11:39:41;;;;;;;4.27;1.30;;;15.60;35.10;;;;;;5055479;28;45836;-64
2022/09/19 11:42:21;;;;;;;2.50;1.10;;;15.40;35.50;;;;;;5047060;28;46306;-62
2022/09/19 11:45:13;;;;;;;4.40;1.17;;;15.30;35.90;;;;;;5056382;28;46461;-64
2022/09/19 11:48:07;;;;;;;5.37;1.23;;;15.30;36.00;;;;;;5058330;28;46429;-63
2022/09/19 11:51:12;;;;;;;5.47;1.20;;;15.10;35.60;;;;;;5054193;28;46654;-64
2022/09/19 11:54:02;;;;;;;4.13;1.30;;;15.50;36.00;;;;;;5049466;28;46753;-64
2022/09/19 11:56:41;;;;;;;5.17;1.30;;;15.80;35.50;;;;;;5056654;28;46420;-64
2022/09/19 11:59:24;;;;;;;4.63;1.30;;;15.60;34.10;;;;;;5055575;28;46346;-64
2022/09/19 12:02:36;;;;;;;7.93;1.60;;;15.40;34.50;;;;;;5053854;28;46432;-66
2022/09/19 12:05:26;;;;;;;3.80;1.60;;;15.30;34.90;;;;;;5045287;28;46636;-63
2022/09/19 12:08:18;;;;;;;6.37;1.27;;;15.20;34.40;;;;;;5066136;28;46366;-63
2022/09/19 12:11:19;;;;;;;2.10;0.97;;;15.20;34.60;;;;;;5050966;28;46453;-64
2022/09/19 12:14:17;;;;;;;4.33;1.40;;;15.30;34.40;;;;;;5042978;28;46737;-65
2022/09/19 12:17:02;;;;;;;2.43;1.10;;;15.10;34.30;;;;;;5054785;28;46527;-65
2022/09/19 12:19:44;;;;;;;3.50;1.03;;;15.10;34.40;;;;;;5041397;28;46466;-64
2022/09/19 12:22:26;;;;;;;2.83;1.23;;;15.10;34.80;;;;;;5054416;28;46459;-63
2022/09/19 12:25:30;;;;;;;2.60;1.00;;;14.80;34.80;;;;;;5054429;28;46462;-64
2022/09/19 12:28:10;;;;;;;4.07;1.20;;;15.00;35.40;;;;;;4993897;28;46832;-65
2022/09/19 12:30:48;;;;;;;4.90;1.43;;;15.00;35.40;;;;;;5047889;28;46737;-64
2022/09/19 12:33:33;;;;;;;10.40;1.70;;;15.10;35.70;;;;;;5058069;28;46464;-64
2022/09/19 12:36:20;;;;;;;5.07;1.33;;;15.30;35.80;;;;;;5062659;28;46574;-64
2022/09/19 12:39:13;;;;;;;5.77;1.10;;;15.20;35.50;;;;;;5055892;28;46348;-64
2022/09/19 12:42:09;;;;;;;8.33;2.60;;;15.20;35.20;;;;;;5058335;28;46317;-62
2022/09/19 12:44:53;;;;;;;8.40;1.60;;;15.40;35.00;;;;;;5063310;28;46324;-63
2022/09/19 12:47:46;;;;;;;4.93;1.40;;;15.50;34.40;;;;;;5062676;28;46367;-63
2022/09/19 12:50:36;;;;;;;2.93;1.10;;;15.80;34.50;;;;;;5064199;28;46422;-63
2022/09/19 12:53:31;;;;;;;7.83;1.27;;;16.00;33.60;;;;;;5051356;28;46313;-63
2022/09/19 12:56:04;;;;;;;3.80;1.20;;;15.80;32.70;;;;;;5068229;28;46452;-63
2022/09/19 12:59:00;;;;;;;2.40;1.00;;;15.70;33.30;;;;;;5054907;28;46298;-65
2022/09/19 13:01:31;;;;;;;2.20;1.00;;;15.50;33.20;;;;;;5047456;28;46566;-63
2022/09/19 13:04:34;;;;;;;6.27;1.40;;;15.20;33.30;;;;;;5056107;28;46457;-64
2022/09/19 13:07:31;;;;;;;2.37;0.90;;;15.00;33.90;;;;;;5062842;28;46500;-65
2022/09/19 13:10:04;;;;;;;4.87;1.60;;;14.80;34.50;;;;;;5046182;28;46643;-65
2022/09/19 13:12:57;;;;;;;3.90;1.30;;;14.60;35.00;;;;;;5059890;28;46994;-65
2022/09/19 13:15:48;;;;;;;3.63;1.20;;;14.50;35.30;;;;;;5046445;28;46309;-65
2022/09/19 13:23:55;;;;;;;3.93;1.00;;;14.30;36.30;;;;;;5057952;28;46544;-65
2022/09/19 13:26:33;;;;;;;4.10;1.10;;;14.50;36.60;;;;;;5057380;28;46474;-65
2022/09/19 13:29:01;;;;;;;5.93;1.00;;;14.50;36.00;;;;;;5052828;27;46580;-65
2022/09/19 13:31:48;;;;;;;3.73;1.20;;;14.80;35.80;;;;;;5053726;28;46564;-66
2022/09/19 13:34:40;;;;;;;3.37;1.10;;;15.00;35.30;;;;;;5055160;28;46362;-67
2022/09/19 13:37:32;;;;;;;5.37;1.10;;;15.20;35.00;;;;;;5049201;28;46432;-66
2022/09/19 13:40:27;;;;;;;3.97;1.10;;;15.30;34.80;;;;;;5056450;28;46382;-65
2022/09/19 13:43:09;;;;;;;2.63;1.07;;;15.20;33.50;;;;;;5057275;28;46310;-65